Terminal Aerodrome Forecast
Issued by NWS Grand Forks, ND

Home | Current Version | Previous Version | Graphics & Text | Print | Product List | Glossary On
Versions: 1 2 3 4 5 6 7 8 9 10 11 12 13 14 15 16 17
661
FTUS43 KFGF 151139
TAFGFK
TAF
KGFK 151139Z 1512/1612 34018G28KT 2SM BLSN BKN010
      TEMPO 1512/1514 3/4SM BLSN BR
     FM151400 34018G28KT 3SM BLSN BKN090
     FM152100 34018G26KT 5SM BLSN BKN250
     FM152300 34014KT P6SM SCT250=

USA.gov is the U.S. government's official web portal to all federal, state and local government web resources and services.